PBD6567 UUEE-USCC
Flight info
| Callsign | PBD6567 |
|---|---|
| Flight time | 2h 2m |
| Altitude | 35000 |
| Route | KOGOM3J KOGOM L94 EKPIR M864 INKEB L94 NAMER T765 GEMKI L94 NOGRI T872 IMANA L749 LUTAT LUTAT2D |
| Aircraft | B738/M-SDE2E3FGHIRWXY/LB1 |
Departure
| Time | 2026-04-24 14:39 |
|---|---|
| Airport | Sheremetyevo International Airport (UUEE) |
Arrival
| Time | 2026-04-24 16:41 |
|---|---|
| Airport | Kurchatov Chelyabinsk International Airport (USCC) |
| Time | Latitude | Longitude | Altitude | Speed | Heading |
|---|---|---|---|---|---|
| 2026-04-24 13:58 | 55.96278 | 37.39908 | 638 ft | 0 kts | 165° |
| 2026-04-24 14:26 | 55.96279 | 37.39908 | 638 ft | 1 kts | 165° |
| 2026-04-24 14:26 | 55.96294 | 37.39899 | 641 ft | 3 kts | 155° |
| 2026-04-24 14:27 | 55.96310 | 37.39881 | 638 ft | 3 kts | 131° |
| 2026-04-24 14:27 | 55.96319 | 37.39853 | 642 ft | 3 kts | 97° |
| 2026-04-24 14:27 | 55.96319 | 37.39827 | 639 ft | 1 kts | 75° |
| 2026-04-24 14:27 | 55.96319 | 37.39825 | 639 ft | 0 kts | 75° |
| 2026-04-24 14:33 | 55.96327 | 37.39875 | 644 ft | 9 kts | 74° |
| 2026-04-24 14:33 | 55.96345 | 37.39964 | 638 ft | 11 kts | 59° |
| 2026-04-24 14:33 | 55.96384 | 37.40112 | 644 ft | 14 kts | 76° |
| 2026-04-24 14:33 | 55.96410 | 37.40221 | 642 ft | 14 kts | 42° |
| 2026-04-24 14:34 | 55.96540 | 37.40201 | 638 ft | 15 kts | 345° |
| 2026-04-24 14:34 | 55.96642 | 37.40150 | 638 ft | 14 kts | 344° |
| 2026-04-24 14:34 | 55.96729 | 37.40177 | 641 ft | 14 kts | 58° |
| 2026-04-24 14:34 | 55.96760 | 37.40363 | 644 ft | 17 kts | 75° |
| 2026-04-24 14:35 | 55.96794 | 37.40582 | 639 ft | 19 kts | 75° |
| 2026-04-24 14:35 | 55.96831 | 37.40829 | 643 ft | 22 kts | 75° |
| 2026-04-24 14:35 | 55.96865 | 37.41061 | 639 ft | 19 kts | 75° |
| 2026-04-24 14:35 | 55.96901 | 37.41298 | 645 ft | 21 kts | 75° |
| 2026-04-24 14:36 | 55.96939 | 37.41551 | 638 ft | 20 kts | 75° |
| 2026-04-24 14:36 | 55.96976 | 37.41795 | 642 ft | 22 kts | 75° |
| 2026-04-24 14:36 | 55.97007 | 37.42008 | 643 ft | 16 kts | 75° |
| 2026-04-24 14:36 | 55.97027 | 37.42142 | 638 ft | 18 kts | 75° |
| 2026-04-24 14:37 | 55.97070 | 37.42435 | 638 ft | 19 kts | 75° |
| 2026-04-24 14:37 | 55.97106 | 37.42677 | 641 ft | 21 kts | 75° |
| 2026-04-24 14:37 | 55.97145 | 37.42936 | 646 ft | 16 kts | 75° |
| 2026-04-24 14:38 | 55.97272 | 37.43017 | 643 ft | 12 kts | 346° |
| 2026-04-24 14:38 | 55.97347 | 37.42973 | 640 ft | 11 kts | 315° |
| 2026-04-24 14:38 | 55.97347 | 37.42857 | 640 ft | 11 kts | 255° |
| 2026-04-24 14:38 | 55.97291 | 37.42479 | 639 ft | 69 kts | 255° |
| 2026-04-24 14:39 | 55.97100 | 37.41208 | 638 ft | 141 kts | 255° |
| 2026-04-24 14:39 | 55.96881 | 37.39182 | 885 ft | 181 kts | 262° |
| 2026-04-24 14:39 | 55.96670 | 37.37691 | 1407 ft | 192 kts | 259° |
| 2026-04-24 14:39 | 55.96165 | 37.34605 | 2742 ft | 196 kts | 259° |
| 2026-04-24 14:40 | 55.95770 | 37.32148 | 3015 ft | 222 kts | 259° |
| 2026-04-24 14:40 | 55.95342 | 37.29387 | 3423 ft | 236 kts | 259° |
| 2026-04-24 14:40 | 55.94895 | 37.26463 | 3838 ft | 252 kts | 259° |
| 2026-04-24 14:41 | 55.93952 | 37.20283 | 5477 ft | 260 kts | 259° |
| 2026-04-24 14:41 | 55.93490 | 37.17154 | 6314 ft | 262 kts | 264° |
| 2026-04-24 14:41 | 55.93645 | 37.13992 | 7023 ft | 258 kts | 297° |
| 2026-04-24 14:41 | 55.94736 | 37.11513 | 7773 ft | 257 kts | 324° |
| 2026-04-24 14:42 | 55.96316 | 37.10029 | 8542 ft | 260 kts | 344° |
| 2026-04-24 14:42 | 55.98085 | 37.09363 | 9339 ft | 263 kts | 350° |
| 2026-04-24 14:42 | 55.99899 | 37.08801 | 9916 ft | 266 kts | 350° |
| 2026-04-24 14:42 | 56.01725 | 37.08230 | 9980 ft | 267 kts | 350° |
| 2026-04-24 14:43 | 56.03549 | 37.07639 | 10004 ft | 266 kts | 349° |
| 2026-04-24 14:43 | 56.05394 | 37.07026 | 10283 ft | 274 kts | 349° |
| 2026-04-24 14:43 | 56.07339 | 37.06382 | 10517 ft | 296 kts | 352° |
| 2026-04-24 14:43 | 56.09462 | 37.06518 | 10732 ft | 318 kts | 14° |
| 2026-04-24 14:44 | 56.11462 | 37.08330 | 11271 ft | 331 kts | 38° |
| 2026-04-24 14:44 | 56.12722 | 37.11078 | 11799 ft | 342 kts | 60° |
| 2026-04-24 14:44 | 56.13284 | 37.13790 | 12296 ft | 347 kts | 72° |
| 2026-04-24 14:44 | 56.14043 | 37.19420 | 13230 ft | 354 kts | 74° |
| 2026-04-24 14:45 | 56.14614 | 37.23744 | 13864 ft | 359 kts | 74° |
| 2026-04-24 14:45 | 56.14848 | 37.28228 | 14495 ft | 367 kts | 94° |
| 2026-04-24 14:45 | 56.14479 | 37.31198 | 14965 ft | 371 kts | 108° |
| 2026-04-24 14:45 | 56.12529 | 37.36348 | 15792 ft | 382 kts | 138° |
| 2026-04-24 14:46 | 56.10259 | 37.38850 | 16475 ft | 385 kts | 154° |
| 2026-04-24 14:46 | 56.08642 | 37.40197 | 16868 ft | 389 kts | 155° |
| 2026-04-24 14:46 | 56.05317 | 37.42850 | 17699 ft | 394 kts | 155° |
| 2026-04-24 14:46 | 56.02865 | 37.44834 | 18275 ft | 397 kts | 154° |
| 2026-04-24 14:47 | 56.01200 | 37.46211 | 18582 ft | 400 kts | 154° |
| 2026-04-24 14:47 | 55.97814 | 37.49052 | 19355 ft | 403 kts | 152° |
| 2026-04-24 14:47 | 55.95526 | 37.51918 | 19803 ft | 405 kts | 131° |
| 2026-04-24 14:47 | 55.93901 | 37.55979 | 20363 ft | 402 kts | 114° |
| 2026-04-24 14:48 | 55.93034 | 37.60625 | 20909 ft | 400 kts | 98° |
| 2026-04-24 14:48 | 55.92536 | 37.65509 | 21402 ft | 403 kts | 97° |
| 2026-04-24 14:48 | 55.92042 | 37.70463 | 21909 ft | 406 kts | 98° |
| 2026-04-24 14:48 | 55.91267 | 37.75334 | 22409 ft | 412 kts | 109° |
| 2026-04-24 14:49 | 55.89994 | 37.79958 | 22919 ft | 417 kts | 116° |
| 2026-04-24 14:49 | 55.88553 | 37.84466 | 23348 ft | 421 kts | 117° |
| 2026-04-24 14:49 | 55.87083 | 37.88995 | 23709 ft | 424 kts | 117° |
| 2026-04-24 14:49 | 55.85611 | 37.93574 | 24076 ft | 427 kts | 117° |
| 2026-04-24 14:50 | 55.84149 | 37.98200 | 24437 ft | 430 kts | 116° |
| 2026-04-24 14:50 | 55.82682 | 38.02871 | 24796 ft | 433 kts | 116° |
| 2026-04-24 14:50 | 55.81252 | 38.07603 | 25135 ft | 435 kts | 111° |
| 2026-04-24 14:50 | 55.80247 | 38.12666 | 25467 ft | 434 kts | 101° |
| 2026-04-24 14:51 | 55.79717 | 38.17938 | 25815 ft | 433 kts | 92° |
| 2026-04-24 14:51 | 55.79696 | 38.23272 | 26148 ft | 432 kts | 83° |
| 2026-04-24 14:51 | 55.79881 | 38.28620 | 26480 ft | 435 kts | 83° |
| 2026-04-24 14:51 | 55.80045 | 38.34012 | 26795 ft | 438 kts | 84° |
| 2026-04-24 14:52 | 55.80228 | 38.39434 | 27099 ft | 440 kts | 80° |
| 2026-04-24 14:52 | 55.80783 | 38.44758 | 27388 ft | 438 kts | 70° |
| 2026-04-24 14:52 | 55.81709 | 38.49914 | 27704 ft | 439 kts | 68° |
| 2026-04-24 14:52 | 55.82694 | 38.55071 | 28031 ft | 441 kts | 68° |
| 2026-04-24 14:53 | 55.83657 | 38.60202 | 28333 ft | 444 kts | 68° |
| 2026-04-24 14:53 | 55.84609 | 38.65441 | 28619 ft | 446 kts | 69° |
| 2026-04-24 14:53 | 55.85556 | 38.70717 | 28898 ft | 448 kts | 68° |
| 2026-04-24 14:53 | 55.86713 | 38.75859 | 29177 ft | 448 kts | 61° |
| 2026-04-24 14:54 | 55.88059 | 38.80874 | 29469 ft | 448 kts | 60° |
| 2026-04-24 14:54 | 55.89442 | 38.85856 | 29779 ft | 449 kts | 60° |
| 2026-04-24 14:54 | 55.90814 | 38.90840 | 30093 ft | 448 kts | 60° |
| 2026-04-24 14:54 | 55.92166 | 38.95850 | 30380 ft | 449 kts | 61° |
| 2026-04-24 14:55 | 55.93071 | 38.99251 | 30567 ft | 449 kts | 61° |
| 2026-04-24 14:55 | 55.94402 | 39.04295 | 30823 ft | 450 kts | 61° |
| 2026-04-24 14:55 | 55.95999 | 39.11128 | 31184 ft | 454 kts | 69° |
| 2026-04-24 14:55 | 55.96732 | 39.16633 | 31441 ft | 458 kts | 79° |
| 2026-04-24 14:56 | 55.96966 | 39.20375 | 31626 ft | 460 kts | 81° |
| 2026-04-24 14:56 | 55.97332 | 39.27999 | 31986 ft | 460 kts | 82° |
| 2026-04-24 14:56 | 55.97593 | 39.33687 | 32237 ft | 460 kts | 82° |
| 2026-04-24 14:56 | 55.97870 | 39.39384 | 32514 ft | 460 kts | 81° |
| 2026-04-24 14:57 | 55.98163 | 39.45075 | 32779 ft | 460 kts | 81° |
| 2026-04-24 14:57 | 55.98465 | 39.50764 | 33024 ft | 460 kts | 81° |
| 2026-04-24 14:57 | 55.98766 | 39.56451 | 33258 ft | 461 kts | 82° |
| 2026-04-24 14:57 | 55.99100 | 39.62135 | 33508 ft | 459 kts | 77° |
| 2026-04-24 14:58 | 55.99818 | 39.67691 | 33704 ft | 456 kts | 69° |
| 2026-04-24 14:58 | 56.00974 | 39.72935 | 33885 ft | 453 kts | 60° |
| 2026-04-24 14:58 | 56.02222 | 39.78115 | 34059 ft | 456 kts | 69° |
| 2026-04-24 14:58 | 56.02973 | 39.83636 | 34243 ft | 459 kts | 79° |
| 2026-04-24 14:59 | 56.03199 | 39.89286 | 34428 ft | 462 kts | 86° |
| 2026-04-24 14:59 | 56.03258 | 39.95031 | 34532 ft | 464 kts | 86° |
| 2026-04-24 14:59 | 56.03290 | 40.00816 | 34534 ft | 466 kts | 87° |
| 2026-04-24 15:00 | 56.03370 | 40.12390 | 34535 ft | 463 kts | 86° |
| 2026-04-24 15:00 | 56.03493 | 40.23857 | 34541 ft | 460 kts | 86° |
| 2026-04-24 15:01 | 56.03626 | 40.35270 | 34541 ft | 458 kts | 86° |
| 2026-04-24 15:01 | 56.03748 | 40.46652 | 34540 ft | 457 kts | 86° |
| 2026-04-24 15:02 | 56.03839 | 40.56107 | 34539 ft | 458 kts | 87° |
| 2026-04-24 15:02 | 56.03957 | 40.69423 | 34556 ft | 459 kts | 86° |
| 2026-04-24 15:03 | 56.04030 | 40.78914 | 34532 ft | 460 kts | 87° |
| 2026-04-24 15:03 | 56.04113 | 40.92326 | 34534 ft | 462 kts | 87° |
| 2026-04-24 15:04 | 56.04172 | 41.03860 | 34531 ft | 464 kts | 87° |
| 2026-04-24 15:04 | 56.04223 | 41.15428 | 34526 ft | 466 kts | 88° |
| 2026-04-24 15:05 | 56.04263 | 41.27035 | 34513 ft | 467 kts | 88° |
| 2026-04-24 15:05 | 56.04289 | 41.36702 | 34509 ft | 467 kts | 88° |
| 2026-04-24 15:06 | 56.04312 | 41.50223 | 34506 ft | 467 kts | 88° |
| 2026-04-24 15:06 | 56.04318 | 41.59954 | 34496 ft | 467 kts | 88° |
| 2026-04-24 15:07 | 56.04317 | 41.71476 | 34492 ft | 466 kts | 88° |
| 2026-04-24 15:07 | 56.04301 | 41.85004 | 34486 ft | 465 kts | 88° |
| 2026-04-24 15:08 | 56.04276 | 41.96557 | 34478 ft | 464 kts | 89° |
| 2026-04-24 15:08 | 56.04242 | 42.08091 | 34475 ft | 464 kts | 89° |
| 2026-04-24 15:09 | 56.04195 | 42.19624 | 34468 ft | 463 kts | 89° |
| 2026-04-24 15:09 | 56.04140 | 42.31073 | 34465 ft | 463 kts | 89° |
| 2026-04-24 15:10 | 56.04073 | 42.42609 | 34460 ft | 464 kts | 89° |
| 2026-04-24 15:10 | 56.03996 | 42.54139 | 34453 ft | 464 kts | 90° |
| 2026-04-24 15:11 | 56.03875 | 42.65690 | 34449 ft | 465 kts | 90° |
| 2026-04-24 15:11 | 56.03729 | 42.77261 | 34444 ft | 465 kts | 90° |
| 2026-04-24 15:12 | 56.03577 | 42.88863 | 34436 ft | 466 kts | 91° |
| 2026-04-24 15:12 | 56.03362 | 43.04309 | 34431 ft | 467 kts | 91° |
| 2026-04-24 15:13 | 56.03189 | 43.15915 | 34425 ft | 468 kts | 91° |
| 2026-04-24 15:13 | 56.03005 | 43.27547 | 34420 ft | 468 kts | 91° |
| 2026-04-24 15:14 | 56.03143 | 43.39165 | 34425 ft | 467 kts | 83° |
| 2026-04-24 15:14 | 56.03960 | 43.50722 | 34423 ft | 468 kts | 82° |
| 2026-04-24 15:15 | 56.04810 | 43.62261 | 34431 ft | 468 kts | 83° |
| 2026-04-24 15:15 | 56.05599 | 43.73739 | 34436 ft | 468 kts | 83° |
| 2026-04-24 15:16 | 56.06356 | 43.85300 | 34432 ft | 468 kts | 84° |
| 2026-04-24 15:16 | 56.07099 | 43.96878 | 34429 ft | 468 kts | 84° |
| 2026-04-24 15:17 | 56.07833 | 44.08448 | 34425 ft | 468 kts | 84° |
| 2026-04-24 15:17 | 56.08556 | 44.20023 | 34415 ft | 467 kts | 84° |
| 2026-04-24 15:18 | 56.09269 | 44.31584 | 34412 ft | 467 kts | 84° |
| 2026-04-24 15:18 | 56.09970 | 44.43144 | 34405 ft | 466 kts | 84° |
| 2026-04-24 15:19 | 56.10660 | 44.54686 | 34400 ft | 466 kts | 84° |
| 2026-04-24 15:19 | 56.11308 | 44.66234 | 34400 ft | 465 kts | 88° |
| 2026-04-24 15:20 | 56.11174 | 44.77804 | 34398 ft | 464 kts | 94° |
| 2026-04-24 15:20 | 56.10845 | 44.89365 | 34397 ft | 464 kts | 93° |
| 2026-04-24 15:21 | 56.10598 | 45.00927 | 34400 ft | 464 kts | 93° |
| 2026-04-24 15:21 | 56.10344 | 45.12410 | 34401 ft | 464 kts | 94° |
| 2026-04-24 15:22 | 56.10063 | 45.23976 | 34405 ft | 465 kts | 94° |
| 2026-04-24 15:23 | 56.09628 | 45.41329 | 34405 ft | 465 kts | 94° |
| 2026-04-24 15:23 | 56.09170 | 45.58710 | 34411 ft | 466 kts | 94° |
| 2026-04-24 15:25 | 56.08351 | 45.87702 | 34416 ft | 467 kts | 95° |
| 2026-04-24 15:26 | 56.07466 | 46.16641 | 34422 ft | 467 kts | 95° |
| 2026-04-24 15:27 | 56.06318 | 46.51422 | 34439 ft | 466 kts | 95° |
| 2026-04-24 15:29 | 56.06635 | 46.86309 | 34449 ft | 467 kts | 91° |
| 2026-04-24 15:31 | 56.06924 | 47.26983 | 34469 ft | 467 kts | 92° |
| 2026-04-24 15:33 | 56.07084 | 47.73454 | 34466 ft | 468 kts | 92° |
| 2026-04-24 15:34 | 56.07097 | 48.02561 | 34480 ft | 468 kts | 93° |
| 2026-04-24 15:35 | 56.07042 | 48.31690 | 34489 ft | 468 kts | 93° |
| 2026-04-24 15:36 | 56.07001 | 48.43352 | 34485 ft | 468 kts | 93° |
| 2026-04-24 15:36 | 56.06920 | 48.60834 | 34494 ft | 468 kts | 94° |
| 2026-04-24 15:37 | 56.06852 | 48.72484 | 34503 ft | 468 kts | 94° |
| 2026-04-24 15:37 | 56.06774 | 48.84065 | 34500 ft | 468 kts | 94° |
| 2026-04-24 15:38 | 56.06684 | 48.95708 | 34508 ft | 468 kts | 94° |
| 2026-04-24 15:38 | 56.06583 | 49.07358 | 34515 ft | 468 kts | 94° |
| 2026-04-24 15:39 | 56.06471 | 49.19004 | 34515 ft | 468 kts | 94° |
| 2026-04-24 15:39 | 56.06348 | 49.30636 | 34518 ft | 468 kts | 94° |
| 2026-04-24 15:40 | 56.06215 | 49.42276 | 34517 ft | 468 kts | 95° |
| 2026-04-24 15:40 | 56.06071 | 49.53930 | 34523 ft | 468 kts | 95° |
| 2026-04-24 15:41 | 56.05916 | 49.65571 | 34526 ft | 468 kts | 95° |
| 2026-04-24 15:41 | 56.05752 | 49.77207 | 34534 ft | 468 kts | 95° |
| 2026-04-24 15:42 | 56.05577 | 49.88846 | 34529 ft | 468 kts | 95° |
| 2026-04-24 15:42 | 56.05398 | 50.00478 | 34540 ft | 468 kts | 95° |
| 2026-04-24 15:43 | 56.05211 | 50.12030 | 34540 ft | 468 kts | 95° |
| 2026-04-24 15:43 | 56.05011 | 50.23652 | 34547 ft | 468 kts | 95° |
| 2026-04-24 15:44 | 56.04800 | 50.35283 | 34547 ft | 468 kts | 95° |
| 2026-04-24 15:44 | 56.04577 | 50.46915 | 34554 ft | 468 kts | 96° |
| 2026-04-24 15:45 | 56.04344 | 50.58556 | 34556 ft | 468 kts | 96° |
| 2026-04-24 15:45 | 56.04100 | 50.70202 | 34557 ft | 469 kts | 96° |
| 2026-04-24 15:46 | 56.03847 | 50.81853 | 34561 ft | 469 kts | 96° |
| 2026-04-24 15:46 | 56.03735 | 50.93537 | 34563 ft | 470 kts | 93° |
| 2026-04-24 15:47 | 56.03835 | 51.05233 | 34569 ft | 471 kts | 92° |
| 2026-04-24 15:47 | 56.03914 | 51.16941 | 34575 ft | 470 kts | 93° |
| 2026-04-24 15:48 | 56.03945 | 51.28646 | 34576 ft | 470 kts | 94° |
| 2026-04-24 15:48 | 56.03954 | 51.40349 | 34574 ft | 470 kts | 94° |
| 2026-04-24 15:49 | 56.03952 | 51.52030 | 34583 ft | 470 kts | 94° |
| 2026-04-24 15:49 | 56.03940 | 51.63733 | 34583 ft | 470 kts | 94° |
| 2026-04-24 15:50 | 56.03920 | 51.75362 | 34588 ft | 470 kts | 94° |
| 2026-04-24 15:50 | 56.03973 | 51.87061 | 34584 ft | 472 kts | 91° |
| 2026-04-24 15:51 | 56.04391 | 51.98808 | 34592 ft | 473 kts | 89° |
| 2026-04-24 15:51 | 56.04859 | 52.10544 | 34598 ft | 473 kts | 90° |
| 2026-04-24 15:52 | 56.05272 | 52.22288 | 34605 ft | 473 kts | 90° |
| 2026-04-24 15:52 | 56.05652 | 52.34039 | 34611 ft | 473 kts | 90° |
| 2026-04-24 15:53 | 56.06020 | 52.45796 | 34607 ft | 473 kts | 90° |
| 2026-04-24 15:53 | 56.06380 | 52.57566 | 34612 ft | 474 kts | 90° |
| 2026-04-24 15:54 | 56.06721 | 52.69346 | 34614 ft | 474 kts | 91° |
| 2026-04-24 15:54 | 56.07032 | 52.81128 | 34624 ft | 474 kts | 91° |
| 2026-04-24 15:55 | 56.07331 | 52.92850 | 34624 ft | 475 kts | 91° |
| 2026-04-24 15:55 | 56.07623 | 53.04642 | 34630 ft | 475 kts | 91° |
| 2026-04-24 15:56 | 56.07906 | 53.16450 | 34633 ft | 475 kts | 91° |
| 2026-04-24 15:56 | 56.08178 | 53.28272 | 34638 ft | 475 kts | 91° |
| 2026-04-24 15:57 | 56.08438 | 53.40088 | 34643 ft | 475 kts | 91° |
| 2026-04-24 15:57 | 56.08690 | 53.51925 | 34641 ft | 476 kts | 92° |
| 2026-04-24 15:58 | 56.08923 | 53.63771 | 34647 ft | 476 kts | 92° |
| 2026-04-24 15:58 | 56.09128 | 53.75610 | 34657 ft | 476 kts | 92° |
| 2026-04-24 15:59 | 56.09322 | 53.87454 | 34658 ft | 476 kts | 92° |
| 2026-04-24 15:59 | 56.09508 | 53.99312 | 34656 ft | 476 kts | 92° |
| 2026-04-24 16:00 | 56.09683 | 54.11091 | 34654 ft | 476 kts | 92° |
| 2026-04-24 16:00 | 56.09848 | 54.22937 | 34665 ft | 476 kts | 92° |
| 2026-04-24 16:01 | 56.09933 | 54.34784 | 34658 ft | 474 kts | 97° |
| 2026-04-24 16:01 | 56.08892 | 54.46329 | 34666 ft | 468 kts | 106° |
| 2026-04-24 16:02 | 56.07570 | 54.57740 | 34670 ft | 468 kts | 106° |
| 2026-04-24 16:02 | 56.06488 | 54.67239 | 34672 ft | 469 kts | 106° |
| 2026-04-24 16:03 | 56.05213 | 54.78700 | 34678 ft | 469 kts | 105° |
| 2026-04-24 16:03 | 56.03943 | 54.90162 | 34684 ft | 470 kts | 105° |
| 2026-04-24 16:04 | 56.02659 | 55.01635 | 34684 ft | 471 kts | 106° |
| 2026-04-24 16:04 | 56.01362 | 55.13102 | 34684 ft | 471 kts | 106° |
| 2026-04-24 16:05 | 55.99393 | 55.30314 | 34688 ft | 471 kts | 106° |
| 2026-04-24 16:06 | 55.97402 | 55.47512 | 34695 ft | 472 kts | 106° |
| 2026-04-24 16:07 | 55.95387 | 55.64636 | 34699 ft | 472 kts | 106° |
| 2026-04-24 16:07 | 55.93340 | 55.81803 | 34704 ft | 472 kts | 107° |
| 2026-04-24 16:08 | 55.91272 | 55.98956 | 34709 ft | 471 kts | 107° |
| 2026-04-24 16:09 | 55.89179 | 56.16095 | 34713 ft | 471 kts | 107° |
| 2026-04-24 16:09 | 55.87772 | 56.27500 | 34716 ft | 471 kts | 107° |
| 2026-04-24 16:11 | 55.84208 | 56.55982 | 34724 ft | 472 kts | 107° |
| 2026-04-24 16:11 | 55.82764 | 56.67374 | 34728 ft | 472 kts | 107° |
| 2026-04-24 16:12 | 55.80584 | 56.84392 | 34731 ft | 473 kts | 107° |
| 2026-04-24 16:13 | 55.78362 | 57.01583 | 34732 ft | 474 kts | 108° |
| 2026-04-24 16:14 | 55.75382 | 57.24345 | 34744 ft | 475 kts | 108° |
| 2026-04-24 16:14 | 55.73109 | 57.41473 | 34750 ft | 475 kts | 108° |
| 2026-04-24 16:15 | 55.70829 | 57.58479 | 34421 ft | 464 kts | 108° |
| 2026-04-24 16:16 | 55.69323 | 57.69591 | 33364 ft | 463 kts | 109° |
| 2026-04-24 16:16 | 55.68568 | 57.75125 | 32840 ft | 460 kts | 109° |
| 2026-04-24 16:17 | 55.66324 | 57.91495 | 31478 ft | 451 kts | 110° |
| 2026-04-24 16:17 | 55.64834 | 58.02237 | 30585 ft | 447 kts | 111° |
| 2026-04-24 16:18 | 55.63351 | 58.12860 | 29708 ft | 442 kts | 112° |
| 2026-04-24 16:18 | 55.61888 | 58.23267 | 28817 ft | 434 kts | 112° |
| 2026-04-24 16:18 | 55.61161 | 58.28422 | 28369 ft | 430 kts | 112° |
| 2026-04-24 16:19 | 55.59714 | 58.38614 | 27457 ft | 424 kts | 112° |
| 2026-04-24 16:19 | 55.58996 | 58.43650 | 27025 ft | 421 kts | 112° |
| 2026-04-24 16:20 | 55.57570 | 58.53595 | 26190 ft | 415 kts | 112° |
| 2026-04-24 16:20 | 55.56155 | 58.63402 | 25381 ft | 409 kts | 111° |
| 2026-04-24 16:20 | 55.55452 | 58.68249 | 24975 ft | 406 kts | 111° |
| 2026-04-24 16:21 | 55.54070 | 58.77765 | 24374 ft | 396 kts | 111° |
| 2026-04-24 16:21 | 55.53383 | 58.82462 | 24005 ft | 393 kts | 111° |
| 2026-04-24 16:21 | 55.52699 | 58.87117 | 23632 ft | 391 kts | 111° |
| 2026-04-24 16:22 | 55.52016 | 58.91752 | 23241 ft | 389 kts | 111° |
| 2026-04-24 16:22 | 55.50709 | 59.00589 | 22398 ft | 385 kts | 111° |
| 2026-04-24 16:22 | 55.50034 | 59.05143 | 22007 ft | 382 kts | 111° |
| 2026-04-24 16:23 | 55.49361 | 59.09665 | 21621 ft | 379 kts | 111° |
| 2026-04-24 16:23 | 55.48694 | 59.14141 | 21245 ft | 377 kts | 111° |
| 2026-04-24 16:23 | 55.48029 | 59.18587 | 20862 ft | 374 kts | 111° |
| 2026-04-24 16:24 | 55.46706 | 59.27394 | 20123 ft | 370 kts | 111° |
| 2026-04-24 16:24 | 55.46047 | 59.31758 | 19758 ft | 367 kts | 110° |
| 2026-04-24 16:24 | 55.45391 | 59.36096 | 19390 ft | 365 kts | 110° |
| 2026-04-24 16:24 | 55.44737 | 59.40409 | 19021 ft | 363 kts | 110° |
| 2026-04-24 16:25 | 55.44094 | 59.44639 | 18670 ft | 362 kts | 110° |
| 2026-04-24 16:25 | 55.43445 | 59.48900 | 18304 ft | 360 kts | 110° |
| 2026-04-24 16:25 | 55.42796 | 59.53148 | 17922 ft | 358 kts | 110° |
| 2026-04-24 16:26 | 55.41503 | 59.61584 | 17134 ft | 354 kts | 110° |
| 2026-04-24 16:26 | 55.40862 | 59.65759 | 16769 ft | 352 kts | 110° |
| 2026-04-24 16:26 | 55.39589 | 59.74018 | 16038 ft | 348 kts | 108° |
| 2026-04-24 16:27 | 55.39222 | 59.78225 | 15728 ft | 349 kts | 95° |
| 2026-04-24 16:27 | 55.39288 | 59.82468 | 15495 ft | 345 kts | 90° |
| 2026-04-24 16:27 | 55.39430 | 59.86680 | 15146 ft | 344 kts | 90° |
| 2026-04-24 16:27 | 55.39574 | 59.90871 | 14800 ft | 342 kts | 90° |
| 2026-04-24 16:28 | 55.39708 | 59.95039 | 14455 ft | 341 kts | 90° |
| 2026-04-24 16:28 | 55.39832 | 59.99189 | 14111 ft | 339 kts | 90° |
| 2026-04-24 16:28 | 55.40061 | 60.07444 | 13393 ft | 337 kts | 91° |
| 2026-04-24 16:29 | 55.40170 | 60.11555 | 13021 ft | 335 kts | 91° |
| 2026-04-24 16:29 | 55.40276 | 60.15643 | 12652 ft | 333 kts | 90° |
| 2026-04-24 16:29 | 55.40394 | 60.23731 | 11965 ft | 328 kts | 92° |
| 2026-04-24 16:30 | 55.40446 | 60.31666 | 11285 ft | 325 kts | 92° |
| 2026-04-24 16:30 | 55.40472 | 60.35631 | 10953 ft | 323 kts | 92° |
| 2026-04-24 16:30 | 55.40500 | 60.39567 | 10609 ft | 321 kts | 92° |
| 2026-04-24 16:31 | 55.40527 | 60.43487 | 10284 ft | 320 kts | 92° |
| 2026-04-24 16:31 | 55.40554 | 60.47362 | 10100 ft | 313 kts | 92° |
| 2026-04-24 16:31 | 55.40581 | 60.51148 | 9952 ft | 305 kts | 92° |
| 2026-04-24 16:31 | 55.40606 | 60.54831 | 9818 ft | 297 kts | 92° |
| 2026-04-24 16:32 | 55.40621 | 60.57222 | 9689 ft | 294 kts | 92° |
| 2026-04-24 16:32 | 55.40649 | 60.62028 | 9284 ft | 292 kts | 92° |
| 2026-04-24 16:32 | 55.40669 | 60.65589 | 8994 ft | 290 kts | 92° |
| 2026-04-24 16:32 | 55.40688 | 60.69118 | 8716 ft | 288 kts | 92° |
| 2026-04-24 16:33 | 55.40707 | 60.72631 | 8433 ft | 285 kts | 92° |
| 2026-04-24 16:33 | 55.40723 | 60.76108 | 8156 ft | 283 kts | 92° |
| 2026-04-24 16:33 | 55.40739 | 60.79566 | 7881 ft | 281 kts | 91° |
| 2026-04-24 16:33 | 55.40776 | 60.82958 | 7591 ft | 281 kts | 89° |
| 2026-04-24 16:34 | 55.40913 | 60.86390 | 7287 ft | 281 kts | 87° |
| 2026-04-24 16:34 | 55.41078 | 60.89827 | 6969 ft | 281 kts | 86° |
| 2026-04-24 16:34 | 55.41243 | 60.93252 | 6655 ft | 281 kts | 86° |
| 2026-04-24 16:34 | 55.41404 | 60.96689 | 6342 ft | 282 kts | 86° |
| 2026-04-24 16:35 | 55.41559 | 61.00126 | 6047 ft | 281 kts | 86° |
| 2026-04-24 16:35 | 55.41710 | 61.03528 | 5841 ft | 276 kts | 86° |
| 2026-04-24 16:35 | 55.41855 | 61.06889 | 5549 ft | 275 kts | 86° |
| 2026-04-24 16:35 | 55.41998 | 61.10247 | 5240 ft | 275 kts | 87° |
| 2026-04-24 16:36 | 55.42140 | 61.13603 | 4943 ft | 275 kts | 87° |
| 2026-04-24 16:36 | 55.41975 | 61.16898 | 4592 ft | 267 kts | 113° |
| 2026-04-24 16:36 | 55.41024 | 61.19549 | 4341 ft | 250 kts | 139° |
| 2026-04-24 16:36 | 55.39691 | 61.21314 | 4202 ft | 229 kts | 153° |
| 2026-04-24 16:37 | 55.38366 | 61.22663 | 4059 ft | 209 kts | 155° |
| 2026-04-24 16:37 | 55.37168 | 61.23855 | 3884 ft | 187 kts | 155° |
| 2026-04-24 16:37 | 55.36442 | 61.24582 | 3715 ft | 179 kts | 155° |
| 2026-04-24 16:37 | 55.35029 | 61.26001 | 3253 ft | 171 kts | 155° |
| 2026-04-24 16:38 | 55.34046 | 61.27095 | 3064 ft | 172 kts | 141° |
| 2026-04-24 16:38 | 55.33532 | 61.29026 | 3020 ft | 179 kts | 107° |
| 2026-04-24 16:38 | 55.33248 | 61.31138 | 2905 ft | 177 kts | 110° |
| 2026-04-24 16:38 | 55.32953 | 61.33224 | 2666 ft | 173 kts | 109° |
| 2026-04-24 16:39 | 55.32688 | 61.35232 | 2351 ft | 166 kts | 108° |
| 2026-04-24 16:39 | 55.32466 | 61.37186 | 2127 ft | 161 kts | 109° |
| 2026-04-24 16:39 | 55.32172 | 61.39057 | 1898 ft | 158 kts | 111° |
| 2026-04-24 16:39 | 55.31876 | 61.40910 | 1635 ft | 157 kts | 109° |
| 2026-04-24 16:40 | 55.31612 | 61.42758 | 1395 ft | 155 kts | 108° |
| 2026-04-24 16:40 | 55.31366 | 61.44576 | 1153 ft | 153 kts | 106° |
| 2026-04-24 16:40 | 55.31121 | 61.46414 | 988 ft | 153 kts | 105° |
| 2026-04-24 16:40 | 55.30878 | 61.48201 | 772 ft | 148 kts | 105° |
| 2026-04-24 16:41 | 55.30648 | 61.49794 | 755 ft | 116 kts | 104° |
| 2026-04-24 16:41 | 55.30499 | 61.50909 | 749 ft | 72 kts | 102° |
| 2026-04-24 16:41 | 55.30425 | 61.51407 | 747 ft | 21 kts | 132° |
| 2026-04-24 16:41 | 55.30334 | 61.51408 | 745 ft | 11 kts | 196° |
| 2026-04-24 16:42 | 55.30264 | 61.51376 | 745 ft | 10 kts | 194° |
| 2026-04-24 16:42 | 55.30192 | 61.51344 | 745 ft | 11 kts | 194° |
| 2026-04-24 16:42 | 55.30112 | 61.51309 | 746 ft | 13 kts | 192° |
| 2026-04-24 16:42 | 55.30060 | 61.51239 | 746 ft | 10 kts | 270° |
| 2026-04-24 16:43 | 55.30069 | 61.51109 | 746 ft | 12 kts | 285° |
| 2026-04-24 16:43 | 55.30091 | 61.50955 | 746 ft | 14 kts | 282° |
| 2026-04-24 16:43 | 55.30029 | 61.50852 | 746 ft | 15 kts | 187° |
| 2026-04-24 16:43 | 55.29964 | 61.50910 | 746 ft | 10 kts | 155° |
| 2026-04-24 16:44 | 55.29916 | 61.50911 | 747 ft | 6 kts | 193° |
| 2026-04-24 16:44 | 55.29894 | 61.50903 | 746 ft | 0 kts | 193° |